CPX405 Details

Departure: Nashville International Airport (KBNA)
Arrival: Miami International Airport (KMIA) at N/A
Route: TIPPN3 BRXTN BULZI NICKI Q81 ENDEW JUULI SSCOT5
Notes:


Current Weather Information
KBNA 171653Z VRB03KT 10SM FEW042 SCT050 33/21 A3003 RMK AO2 SLP159 T03280206
KMIA 171653Z 14008KT 110V190 10SM SCT035 BKN050 BKN120 BKN250 33/23 A3009 RMK AO2 LTG DSNT NW SLP191 CB DSNT NW T03330228